High Challenge — D5LX9 — position and weather

sailwx.info

Track history (hours):
 
Tides and Currents Weather Stations Pressure Air Temp Water Temp Dewpoint Dewpoint Depression Visibility Wind Speed Wind Dir Waves Ship Positions

High Challenge

Last reported at 2018-May-14 11:47 UTC. Time now 2018-May-22 17:34 UTC.
Position N 22°01' E 121°13'.
Warning: this ship's position is 8 days out of date.

Length 183 m; draft 11.8 m.

Type: Ship. MMSI: 636017622.

Date/timePositionNaut miles runAvg speedWind from/ knotsBaromVisibWave heightAir tempDewpointWater temp
2018-May-14 11:47N 22°01' E 121°13'412.6
2018-May-14 11:28N 22°04' E 121°15'612.6
2018-May-14 10:57N 22°09' E 121°19'1712.0
2018-May-14 09:31N 22°22' E 121°32'512.8
2018-May-14 09:07N 22°26' E 121°36'113.0
2018-May-14 09:00N 22°27' E 121°37'912.8
2018-May-14 08:16N 22°34' E 121°43'1912.1
2018-May-14 06:44N 22°51' E 121°51'610.9
2018-May-14 06:12N 22°57' E 121°52'1811.7
2018-May-14 04:41N 23°13' E 122°00'312.2
2018-May-14 04:28N 23°15' E 122°01'9211.9
2018-May-13 20:47N 24°41' E 122°39'1711.6
2018-May-13 19:18N 24°57' E 122°46'4711.4
2018-May-13 15:12N 25°43' E 122°55'2312.5
2018-May-13 13:24N 26°05' E 122°57'512.6
2018-May-13 12:59N 26°10' E 122°57'613.4
2018-May-13 12:30N 26°17' E 122°58'613.0
2018-May-13 12:00N 26°23' E 122°58'713.3
2018-May-13 11:29N 26°30' E 122°59'58812.3
2018-May-11 11:44N 36°01' E 120°19'3 8.9
2018-May-11 11:25N 36°02' E 120°16'3 6.4
2018-May-11 11:00N 36°04' E 120°13'0 0.0
2018-May-10 02:39N 36°04' E 120°13'0 0.0
2018-May-10 02:21N 36°04' E 120°13'0 0.0
2018-May-10 00:02N 36°04' E 120°13'0 0.0
2018-May-09 19:38N 36°04' E 120°13'0 0.0
2018-May-09 19:08N 36°04' E 120°13'0 0.0
2018-May-09 13:08N 36°04' E 120°13'0 0.0
2018-May-09 12:54N 36°04' E 120°13'0 0.0
2018-May-09 11:51N 36°04' E 120°13'0 0.4
2018-May-09 11:23N 36°04' E 120°13'2 3.7
2018-May-09 10:54N 36°04' E 120°15'2 5.1
2018-May-09 10:29N 36°02' E 120°16'6 9.9
2018-May-09 09:54N 36°01' E 120°23'2 3.6
2018-May-09 09:21N 36°01' E 120°25'  
2018-May-06 01:17N 34°29' E 137°03'411.2
2018-May-06 00:53N 34°33' E 137°01'712.7
2018-May-06 00:20N 34°37' E 136°54'413.2
2018-May-06 00:00N 34°40' E 136°50'713.2
2018-May-05 23:30N 34°46' E 136°47'612.9
2018-May-05 23:00N 34°52' E 136°45'3 4.7
2018-May-05 22:27N 34°55' E 136°45'0 0.5
2018-May-05 22:00N 34°55' E 136°45'3 6.1
2018-May-05 21:30N 34°58' E 136°45'1 1.1
2018-May-05 20:57N 34°58' E 136°44'0 0.1
2018-May-05 20:30N 34°58' E 136°44'0 0.0
2018-May-05 19:57N 34°58' E 136°44'0 0.1
2018-May-05 19:30N 34°58' E 136°44'0 0.1
2018-May-05 18:51N 34°58' E 136°44'0 0.0
2018-May-05 18:30N 34°58' E 136°44'0 0.0
2018-May-05 17:57N 34°58' E 136°44'0 0.0
2018-May-05 17:27N 34°58' E 136°44'0 0.0
2018-May-05 16:57N 34°58' E 136°44'0 0.0
2018-May-05 16:27N 34°58' E 136°44'0 0.1
2018-May-05 15:57N 34°58' E 136°44'0 0.0
2018-May-05 15:27N 34°58' E 136°44'0 0.0
2018-May-05 14:57N 34°58' E 136°44'0 0.0
2018-May-05 14:30N 34°58' E 136°44'0 0.0
2018-May-05 14:00N 34°58' E 136°44'0 0.1
2018-May-05 13:27N 34°58' E 136°44'0 0.1
2018-May-05 12:57N 34°58' E 136°44'0 0.1
2018-May-05 12:27N 34°58' E 136°44'0 0.0
2018-May-05 11:57N 34°58' E 136°44'0 0.0
2018-May-05 11:27N 34°58' E 136°44'0 0.0
2018-May-05 10:57N 34°58' E 136°44'0 0.1
2018-May-05 10:27N 34°58' E 136°44'0 0.1
2018-May-05 09:57N 34°58' E 136°44'0 0.0
2018-May-05 09:30N 34°58' E 136°44'0 0.0
2018-May-05 09:00N 34°58' E 136°44'0 0.0
2018-May-05 08:27N 34°58' E 136°44'0 0.0
2018-May-05 08:00N 34°58' E 136°44'0 0.0
2018-May-05 07:30N 34°58' E 136°44'0 0.1
2018-May-05 07:00N 34°58' E 136°44'0 0.0
2018-May-05 06:30N 34°58' E 136°44'0 0.1
2018-May-05 05:57N 34°58' E 136°44'0 0.1
2018-May-05 05:27N 34°58' E 136°44'0 0.0
2018-May-05 05:00N 34°58' E 136°44'0 0.0
2018-May-05 04:27N 34°58' E 136°44'0 0.0
2018-May-05 03:57N 34°58' E 136°44'0 0.0
2018-May-05 03:27N 34°58' E 136°44'0 0.0
2018-May-05 02:57N 34°58' E 136°44'0 0.0
2018-May-05 02:27N 34°58' E 136°44'0 0.1
2018-May-05 02:00N 34°58' E 136°44'0 0.2
2018-May-05 01:28N 34°58' E 136°44'2 4.3
2018-May-05 01:00N 34°58' E 136°47'4 7.2
2018-May-05 00:31N 34°60' E 136°51'0 0.2
2018-May-04 23:58N 34°60' E 136°51'0 0.1
2018-May-04 23:28N 34°60' E 136°51'0 0.1
2018-May-04 22:58N 34°60' E 136°51'0 0.0
2018-May-04 22:28N 34°60' E 136°51'0 0.0
2018-May-04 21:52N 34°60' E 136°51'0 0.0
2018-May-04 21:28N 34°60' E 136°51'0 0.1
2018-May-04 20:58N 34°60' E 136°51'0 0.1
2018-May-04 20:28N 34°60' E 136°51'0 0.0
2018-May-04 19:58N 34°60' E 136°51'0 0.0
2018-May-04 19:28N 34°60' E 136°51'0 0.1
2018-May-04 18:58N 34°60' E 136°51'0 0.0
2018-May-04 18:28N 34°60' E 136°51'0 0.1
2018-May-04 17:58N 34°60' E 136°51'0 0.0
2018-May-04 17:28N 34°60' E 136°51'0 0.0
2018-May-04 16:58N 34°60' E 136°51'0 0.1
2018-May-04 16:22N 34°60' E 136°51'0 0.1
2018-May-04 15:58N 34°60' E 136°51'0 0.0
2018-May-04 15:28N 34°60' E 136°51'0 0.0
2018-May-04 14:58N 34°60' E 136°51'0 0.0
2018-May-04 14:28N 34°60' E 136°51'0 0.0
2018-May-04 13:58N 34°60' E 136°51'0 0.1
2018-May-04 13:28N 34°60' E 136°51'0 0.0
2018-May-04 12:58N 34°60' E 136°51'0 0.0
2018-May-04 12:28N 34°60' E 136°51'0 0.0
2018-May-04 11:58N 34°60' E 136°51'  
Track history (hours):
 
Tides and Currents Weather Stations Pressure Air Temp Water Temp Dewpoint Dewpoint Depression Visibility Wind Speed Wind Dir Waves Ship Positions

High Challenge

Last reported at 2018-May-14 11:47 UTC. Time now 2018-May-22 17:34 UTC.
Position N 22°01' E 121°13'.
Warning: this ship's position is 8 days out of date.

Length 183 m; draft 11.8 m.

Type: Ship. MMSI: 636017622.

Date/timePositionNaut miles runAvg speedWind from/ knotsBaromVisibWave heightAir tempDewpointWater temp
2018-May-14 11:47N 22°01' E 121°13'412.6
2018-May-14 11:28N 22°04' E 121°15'612.6
2018-May-14 10:57N 22°09' E 121°19'1712.0
2018-May-14 09:31N 22°22' E 121°32'512.8
2018-May-14 09:07N 22°26' E 121°36'113.0
2018-May-14 09:00N 22°27' E 121°37'912.8
2018-May-14 08:16N 22°34' E 121°43'1912.1
2018-May-14 06:44N 22°51' E 121°51'610.9
2018-May-14 06:12N 22°57' E 121°52'1811.7
2018-May-14 04:41N 23°13' E 122°00'312.2
2018-May-14 04:28N 23°15' E 122°01'9211.9
2018-May-13 20:47N 24°41' E 122°39'1711.6
2018-May-13 19:18N 24°57' E 122°46'4711.4
2018-May-13 15:12N 25°43' E 122°55'2312.5
2018-May-13 13:24N 26°05' E 122°57'512.6
2018-May-13 12:59N 26°10' E 122°57'613.4
2018-May-13 12:30N 26°17' E 122°58'613.0
2018-May-13 12:00N 26°23' E 122°58'713.3
2018-May-13 11:29N 26°30' E 122°59'58812.3
2018-May-11 11:44N 36°01' E 120°19'3 8.9
2018-May-11 11:25N 36°02' E 120°16'3 6.4
2018-May-11 11:00N 36°04' E 120°13'0 0.0
2018-May-10 02:39N 36°04' E 120°13'0 0.0
2018-May-10 02:21N 36°04' E 120°13'0 0.0
2018-May-10 00:02N 36°04' E 120°13'0 0.0
2018-May-09 19:38N 36°04' E 120°13'0 0.0
2018-May-09 19:08N 36°04' E 120°13'0 0.0
2018-May-09 13:08N 36°04' E 120°13'0 0.0
2018-May-09 12:54N 36°04' E 120°13'0 0.0
2018-May-09 11:51N 36°04' E 120°13'0 0.4
2018-May-09 11:23N 36°04' E 120°13'2 3.7
2018-May-09 10:54N 36°04' E 120°15'2 5.1
2018-May-09 10:29N 36°02' E 120°16'6 9.9
2018-May-09 09:54N 36°01' E 120°23'2 3.6
2018-May-09 09:21N 36°01' E 120°25'  
2018-May-06 01:17N 34°29' E 137°03'411.2
2018-May-06 00:53N 34°33' E 137°01'712.7
2018-May-06 00:20N 34°37' E 136°54'413.2
2018-May-06 00:00N 34°40' E 136°50'713.2
2018-May-05 23:30N 34°46' E 136°47'612.9
2018-May-05 23:00N 34°52' E 136°45'3 4.7
2018-May-05 22:27N 34°55' E 136°45'0 0.5
2018-May-05 22:00N 34°55' E 136°45'3 6.1
2018-May-05 21:30N 34°58' E 136°45'1 1.1
2018-May-05 20:57N 34°58' E 136°44'0 0.1
2018-May-05 20:30N 34°58' E 136°44'0 0.0
2018-May-05 19:57N 34°58' E 136°44'0 0.1
2018-May-05 19:30N 34°58' E 136°44'0 0.1
2018-May-05 18:51N 34°58' E 136°44'0 0.0
2018-May-05 18:30N 34°58' E 136°44'0 0.0
2018-May-05 17:57N 34°58' E 136°44'0 0.0
2018-May-05 17:27N 34°58' E 136°44'0 0.0
2018-May-05 16:57N 34°58' E 136°44'0 0.0
2018-May-05 16:27N 34°58' E 136°44'0 0.1
2018-May-05 15:57N 34°58' E 136°44'0 0.0
2018-May-05 15:27N 34°58' E 136°44'0 0.0
2018-May-05 14:57N 34°58' E 136°44'0 0.0
2018-May-05 14:30N 34°58' E 136°44'0 0.0
2018-May-05 14:00N 34°58' E 136°44'0 0.1
2018-May-05 13:27N 34°58' E 136°44'0 0.1
2018-May-05 12:57N 34°58' E 136°44'0 0.1
2018-May-05 12:27N 34°58' E 136°44'0 0.0
2018-May-05 11:57N 34°58' E 136°44'0 0.0
2018-May-05 11:27N 34°58' E 136°44'0 0.0
2018-May-05 10:57N 34°58' E 136°44'0 0.1
2018-May-05 10:27N 34°58' E 136°44'0 0.1
2018-May-05 09:57N 34°58' E 136°44'0 0.0
2018-May-05 09:30N 34°58' E 136°44'0 0.0
2018-May-05 09:00N 34°58' E 136°44'0 0.0
2018-May-05 08:27N 34°58' E 136°44'0 0.0
2018-May-05 08:00N 34°58' E 136°44'0 0.0
2018-May-05 07:30N 34°58' E 136°44'0 0.1
2018-May-05 07:00N 34°58' E 136°44'0 0.0
2018-May-05 06:30N 34°58' E 136°44'0 0.1
2018-May-05 05:57N 34°58' E 136°44'0 0.1
2018-May-05 05:27N 34°58' E 136°44'0 0.0
2018-May-05 05:00N 34°58' E 136°44'0 0.0
2018-May-05 04:27N 34°58' E 136°44'0 0.0
2018-May-05 03:57N 34°58' E 136°44'0 0.0
2018-May-05 03:27N 34°58' E 136°44'0 0.0
2018-May-05 02:57N 34°58' E 136°44'0 0.0
2018-May-05 02:27N 34°58' E 136°44'0 0.1
2018-May-05 02:00N 34°58' E 136°44'0 0.2
2018-May-05 01:28N 34°58' E 136°44'2 4.3
2018-May-05 01:00N 34°58' E 136°47'4 7.2
2018-May-05 00:31N 34°60' E 136°51'0 0.2
2018-May-04 23:58N 34°60' E 136°51'0 0.1
2018-May-04 23:28N 34°60' E 136°51'0 0.1
2018-May-04 22:58N 34°60' E 136°51'0 0.0
2018-May-04 22:28N 34°60' E 136°51'0 0.0
2018-May-04 21:52N 34°60' E 136°51'0 0.0
2018-May-04 21:28N 34°60' E 136°51'0 0.1
2018-May-04 20:58N 34°60' E 136°51'0 0.1
2018-May-04 20:28N 34°60' E 136°51'0 0.0
2018-May-04 19:58N 34°60' E 136°51'0 0.0
2018-May-04 19:28N 34°60' E 136°51'0 0.1
2018-May-04 18:58N 34°60' E 136°51'0 0.0
2018-May-04 18:28N 34°60' E 136°51'0 0.1
2018-May-04 17:58N 34°60' E 136°51'0 0.0
2018-May-04 17:28N 34°60' E 136°51'0 0.0
2018-May-04 16:58N 34°60' E 136°51'0 0.1
2018-May-04 16:22N 34°60' E 136°51'0 0.1
2018-May-04 15:58N 34°60' E 136°51'0 0.0
2018-May-04 15:28N 34°60' E 136°51'0 0.0
2018-May-04 14:58N 34°60' E 136°51'0 0.0
2018-May-04 14:28N 34°60' E 136°51'0 0.0
2018-May-04 13:58N 34°60' E 136°51'0 0.1
2018-May-04 13:28N 34°60' E 136°51'0 0.0
2018-May-04 12:58N 34°60' E 136°51'0 0.0
2018-May-04 12:28N 34°60' E 136°51'0 0.0
2018-May-04 11:58N 34°60' E 136°51'  

Dump ship's entire track history